Time;durP1;ratioP1;P1;durP2;ratioP2;P2;SDS_P1;SDS_P2;PMS_P1;PMS_P2;Temp;Humidity;BMP_temperature;BMP_pressure;BME280_temperature;BME280_humidity;BME280_pressure;Samples;Min_cycle;Max_cycle;Signal;HPM_P1;HPM_P2
2023/03/07 00:01:22;;;;;;;;;;;7.60;76.80;;;;;;5007827;28;83895;-39
2023/03/07 00:03:47;;;;;;;;;;;7.60;76.90;;;;;;5008377;28;83942;-39
2023/03/07 00:06:13;;;;;;;;;;;7.60;76.90;;;;;;5006843;28;82808;-40
2023/03/07 00:08:38;;;;;;;;;;;7.60;77.00;;;;;;5006078;28;84256;-39
2023/03/07 00:11:05;;;;;;;;;;;7.50;76.90;;;;;;5014487;28;85228;-40
2023/03/07 00:13:32;;;;;;;;;;;7.60;77.00;;;;;;5019553;28;82157;-40
2023/03/07 00:16:05;;;;;;;;;;;7.60;76.90;;;;;;5016478;28;83894;-39
2023/03/07 00:18:31;;;;;;;;;;;7.60;76.90;;;;;;5020700;28;82476;-39
2023/03/07 00:20:57;;;;;;;;;;;7.50;76.90;;;;;;5020847;28;82915;-39
2023/03/07 00:23:23;;;;;;;;;;;7.60;76.90;;;;;;5020784;28;84494;-39
2023/03/07 00:26:05;;;;;;;;;;;7.50;76.90;;;;;;5020967;28;82091;-40
2023/03/07 00:28:31;;;;;;;;;;;7.60;77.00;;;;;;5019884;28;82487;-40
2023/03/07 00:31:01;;;;;;;;;;;7.50;77.00;;;;;;5005895;28;84536;-40
2023/03/07 00:33:26;;;;;;;;;;;7.50;77.00;;;;;;5013650;28;82254;-40
2023/03/07 00:35:55;;;;;;;;;;;7.50;77.00;;;;;;5012471;28;83848;-39
2023/03/07 00:38:21;;;;;;;;;;;7.50;76.90;;;;;;5026045;28;84489;-39
2023/03/07 00:40:54;;;;;;;;;;;7.50;77.00;;;;;;5005497;28;84246;-39
2023/03/07 00:43:19;;;;;;;;;;;7.50;77.00;;;;;;5006118;28;83087;-39
2023/03/07 00:45:45;;;;;;;;;;;7.50;77.00;;;;;;5006114;28;82529;-39
2023/03/07 00:48:10;;;;;;;;;;;7.50;77.10;;;;;;5005810;28;83861;-39
2023/03/07 00:50:36;;;;;;;;;;;7.50;77.00;;;;;;5005637;28;84630;-39
2023/03/07 00:53:01;;;;;;;;;;;7.50;77.00;;;;;;5006079;28;81315;-39
2023/03/07 00:55:27;;;;;;;;;;;7.50;77.00;;;;;;5005831;28;83163;-39
2023/03/07 00:57:52;;;;;;;;;;;7.50;77.10;;;;;;5005738;28;84528;-40
2023/03/07 01:00:18;;;;;;;;;;;7.50;77.00;;;;;;5017000;28;83064;-39
2023/03/07 01:02:43;;;;;;;;;;;7.50;77.10;;;;;;5021305;28;82038;-39
2023/03/07 01:05:09;;;;;;;;;;;7.50;77.10;;;;;;5020241;28;82142;-39
2023/03/07 01:07:35;;;;;;;;;;;7.50;77.10;;;;;;5020164;28;83211;-39
2023/03/07 01:10:00;;;;;;;;;;;7.50;77.10;;;;;;5017402;28;84785;-39
2023/03/07 01:12:26;;;;;;;;;;;7.50;77.10;;;;;;5020695;28;82132;-40
2023/03/07 01:14:51;;;;;;;;;;;7.50;77.10;;;;;;5022004;28;82180;-39
2023/03/07 01:17:16;;;;;;;;;;;7.40;77.00;;;;;;5005992;28;83638;-39
2023/03/07 01:19:42;;;;;;;;;;;7.50;77.10;;;;;;5005575;28;82186;-40
2023/03/07 01:22:07;;;;;;;;;;;7.50;77.10;;;;;;5007968;28;83724;-40
2023/03/07 01:24:33;;;;;;;;;;;7.50;77.10;;;;;;5004979;28;83531;-39
2023/03/07 01:26:58;;;;;;;;;;;7.40;77.10;;;;;;5005016;28;85180;-40
2023/03/07 01:29:24;;;;;;;;;;;7.40;77.10;;;;;;5012962;28;84554;-39
2023/03/07 01:31:49;;;;;;;;;;;7.40;77.00;;;;;;5016903;28;82149;-39
2023/03/07 01:34:15;;;;;;;;;;;7.40;77.00;;;;;;5005273;28;84319;-40
2023/03/07 01:36:40;;;;;;;;;;;7.40;77.10;;;;;;5007100;28;84657;-39
2023/03/07 01:39:06;;;;;;;;;;;7.40;77.10;;;;;;5018105;28;82071;-39
2023/03/07 01:41:36;;;;;;;;;;;7.40;77.10;;;;;;5005609;28;83934;-39
2023/03/07 01:44:04;;;;;;;;;;;7.40;77.10;;;;;;5019895;28;84451;-39
2023/03/07 01:46:35;;;;;;;;;;;7.40;77.10;;;;;;5019058;28;83807;-38
2023/03/07 01:49:13;;;;;;;;;;;7.40;77.10;;;;;;5009535;28;85304;-39
2023/03/07 01:51:40;;;;;;;;;;;7.40;77.00;;;;;;5021258;28;82054;-39
2023/03/07 01:54:07;;;;;;;;;;;7.40;77.10;;;;;;5024958;28;84016;-39
2023/03/07 01:56:34;;;;;;;;;;;7.40;77.10;;;;;;5023092;28;84331;-39
2023/03/07 01:59:00;;;;;;;;;;;7.40;77.10;;;;;;5023949;28;82923;-39
2023/03/07 02:01:26;;;;;;;;;;;7.40;77.10;;;;;;5023312;28;83995;-39
2023/03/07 02:03:51;;;;;;;;;;;7.40;77.10;;;;;;5020663;28;84565;-40
2023/03/07 02:06:17;;;;;;;;;;;7.40;77.20;;;;;;5013383;28;81343;-39
2023/03/07 02:08:44;;;;;;;;;;;7.40;77.20;;;;;;5008537;28;83213;-39
2023/03/07 02:11:10;;;;;;;;;;;7.40;77.20;;;;;;5021900;28;82166;-39
2023/03/07 02:13:36;;;;;;;;;;;7.30;77.10;;;;;;5021229;28;83910;-40
2023/03/07 02:16:01;;;;;;;;;;;7.40;77.20;;;;;;5023121;28;84710;-39
2023/03/07 02:18:29;;;;;;;;;;;7.40;77.20;;;;;;5026131;28;82195;-39
2023/03/07 02:21:11;;;;;;;;;;;7.30;77.20;;;;;;5027922;28;84044;-39
2023/03/07 02:23:58;;;;;;;;;;;7.30;77.10;;;;;;5027741;28;83459;-39
2023/03/07 02:26:29;;;;;;;;;;;7.30;77.20;;;;;;5030142;28;81858;-39
2023/03/07 02:28:55;;;;;;;;;;;7.30;77.20;;;;;;5027652;28;84471;-39
2023/03/07 02:31:21;;;;;;;;;;;7.30;77.20;;;;;;5028199;28;81266;-39
2023/03/07 02:33:46;;;;;;;;;;;7.30;77.10;;;;;;5027858;28;82146;-39
2023/03/07 02:36:14;;;;;;;;;;;7.30;77.20;;;;;;5027491;28;84546;-39
2023/03/07 02:38:41;;;;;;;;;;;7.30;77.20;;;;;;5026975;28;82974;-39
2023/03/07 02:41:08;;;;;;;;;;;7.40;77.20;;;;;;5027601;28;84903;-39
2023/03/07 02:43:33;;;;;;;;;;;7.30;77.10;;;;;;5027447;28;84589;-39
2023/03/07 02:45:59;;;;;;;;;;;7.30;77.10;;;;;;5027286;28;82128;-39
2023/03/07 02:48:24;;;;;;;;;;;7.30;77.20;;;;;;5030017;28;83873;-40
2023/03/07 02:50:50;;;;;;;;;;;7.30;77.20;;;;;;5026198;28;82075;-39
2023/03/07 02:53:15;;;;;;;;;;;7.30;77.20;;;;;;5027413;28;83885;-39
2023/03/07 02:55:41;;;;;;;;;;;7.30;77.20;;;;;;5027783;28;82867;-38
2023/03/07 02:58:06;;;;;;;;;;;7.30;77.30;;;;;;5027480;28;82092;-38
2023/03/07 03:00:32;;;;;;;;;;;7.30;77.20;;;;;;5027500;28;81889;-39
2023/03/07 03:02:57;;;;;;;;;;;7.30;77.20;;;;;;5026494;28;83494;-39
2023/03/07 03:05:23;;;;;;;;;;;7.30;77.20;;;;;;5027202;28;82031;-39
2023/03/07 03:07:48;;;;;;;;;;;7.30;77.30;;;;;;5027508;28;82413;-39
2023/03/07 03:10:14;;;;;;;;;;;7.30;77.40;;;;;;5029234;28;84835;-39
2023/03/07 03:12:39;;;;;;;;;;;7.30;77.30;;;;;;5027380;28;84222;-39
2023/03/07 03:15:05;;;;;;;;;;;7.30;77.30;;;;;;5026741;28;84585;-39
2023/03/07 03:17:31;;;;;;;;;;;7.30;77.30;;;;;;5026950;28;82080;-39
2023/03/07 03:19:56;;;;;;;;;;;7.30;77.20;;;;;;5023043;28;84245;-39
2023/03/07 03:22:22;;;;;;;;;;;7.30;77.20;;;;;;5022791;28;83195;-39
2023/03/07 03:24:47;;;;;;;;;;;7.30;77.30;;;;;;5021188;28;82334;-39
2023/03/07 03:27:13;;;;;;;;;;;7.30;77.30;;;;;;5012413;28;83806;-39
2023/03/07 03:29:38;;;;;;;;;;;7.30;77.30;;;;;;5021942;28;83500;-39
2023/03/07 03:32:04;;;;;;;;;;;7.30;77.30;;;;;;5025160;28;82259;-39
2023/03/07 03:34:30;;;;;;;;;;;7.30;77.30;;;;;;5008696;28;83766;-39
2023/03/07 03:36:55;;;;;;;;;;;7.30;77.40;;;;;;5012127;28;82691;-39
2023/03/07 03:39:21;;;;;;;;;;;7.30;77.30;;;;;;5019853;28;83847;-39
2023/03/07 03:41:46;;;;;;;;;;;7.30;77.30;;;;;;5017821;28;83465;-39
2023/03/07 03:44:12;;;;;;;;;;;7.30;77.30;;;;;;5012090;28;81703;-39
2023/03/07 03:46:37;;;;;;;;;;;7.30;77.30;;;;;;5022084;28;82165;-39
2023/03/07 03:49:03;;;;;;;;;;;7.30;77.30;;;;;;5010375;28;84564;-39
2023/03/07 03:51:28;;;;;;;;;;;7.20;77.30;;;;;;5020996;28;83183;-39
2023/03/07 03:53:56;;;;;;;;;;;7.20;77.40;;;;;;5016481;28;84775;-39
2023/03/07 03:56:22;;;;;;;;;;;7.30;77.30;;;;;;5014901;28;82829;-39
2023/03/07 03:58:50;;;;;;;;;;;7.30;77.30;;;;;;5023435;28;83769;-40
2023/03/07 04:01:16;;;;;;;;;;;7.20;77.30;;;;;;5021628;28;84487;-39
2023/03/07 04:03:43;;;;;;;;;;;7.30;77.30;;;;;;5019066;28;82097;-40
2023/03/07 04:06:09;;;;;;;;;;;7.20;77.40;;;;;;5022451;28;83705;-39
2023/03/07 04:08:35;;;;;;;;;;;7.20;77.40;;;;;;5006665;28;83727;-39
2023/03/07 04:11:01;;;;;;;;;;;7.20;77.40;;;;;;5006106;28;82728;-40
2023/03/07 04:13:26;;;;;;;;;;;7.20;77.40;;;;;;5013938;28;83118;-39
2023/03/07 04:15:53;;;;;;;;;;;7.20;77.30;;;;;;5008432;28;83022;-39
2023/03/07 04:18:19;;;;;;;;;;;7.20;77.40;;;;;;5020935;28;84759;-39
2023/03/07 04:20:45;;;;;;;;;;;7.20;77.40;;;;;;5022021;28;84445;-39
2023/03/07 04:23:11;;;;;;;;;;;7.20;77.40;;;;;;5020821;28;82315;-40
2023/03/07 04:25:36;;;;;;;;;;;7.20;77.30;;;;;;5020971;28;83912;-40
2023/03/07 04:28:02;;;;;;;;;;;7.20;77.40;;;;;;5009982;28;84332;-39
2023/03/07 04:30:27;;;;;;;;;;;7.20;77.40;;;;;;5020693;28;82895;-39
2023/03/07 04:32:53;;;;;;;;;;;7.20;77.30;;;;;;5022720;28;82065;-39
2023/03/07 04:35:19;;;;;;;;;;;7.20;77.40;;;;;;5024266;28;83068;-39
2023/03/07 04:37:44;;;;;;;;;;;7.20;77.30;;;;;;5022732;28;84035;-39
2023/03/07 04:40:10;;;;;;;;;;;7.20;77.40;;;;;;5018047;28;84462;-39
2023/03/07 04:42:35;;;;;;;;;;;7.20;77.40;;;;;;5023114;28;82353;-39
2023/03/07 04:45:01;;;;;;;;;;;7.20;77.30;;;;;;5016554;28;84009;-39
2023/03/07 04:47:26;;;;;;;;;;;7.20;77.30;;;;;;5005756;28;84703;-39
2023/03/07 04:49:52;;;;;;;;;;;7.20;77.40;;;;;;5005714;28;82108;-39
2023/03/07 04:52:17;;;;;;;;;;;7.20;77.40;;;;;;5021346;28;82531;-39
2023/03/07 04:54:43;;;;;;;;;;;7.20;77.40;;;;;;5005547;28;83449;-38
2023/03/07 04:57:09;;;;;;;;;;;7.20;77.40;;;;;;5020343;28;82499;-39
2023/03/07 04:59:37;;;;;;;;;;;7.20;77.40;;;;;;5005586;28;84679;-39
2023/03/07 05:02:06;;;;;;;;;;;7.20;77.30;;;;;;5016022;28;82895;-39
2023/03/07 05:04:32;;;;;;;;;;;7.20;77.40;;;;;;5018120;28;84174;-39
2023/03/07 05:06:58;;;;;;;;;;;7.20;77.40;;;;;;5020302;28;84629;-39
2023/03/07 05:09:23;;;;;;;;;;;7.20;77.30;;;;;;5017778;28;82136;-40
2023/03/07 05:11:49;;;;;;;;;;;7.20;77.40;;;;;;5014162;28;83808;-39
2023/03/07 05:14:15;;;;;;;;;;;7.20;77.40;;;;;;5021377;28;84368;-39
2023/03/07 05:16:40;;;;;;;;;;;7.20;77.30;;;;;;5014060;28;83202;-39
2023/03/07 05:19:07;;;;;;;;;;;7.20;77.40;;;;;;5008172;28;84366;-40
2023/03/07 05:21:32;;;;;;;;;;;7.20;77.40;;;;;;5005965;28;81429;-39
2023/03/07 05:23:58;;;;;;;;;;;7.20;77.40;;;;;;5005841;28;82818;-39
2023/03/07 05:26:23;;;;;;;;;;;7.20;77.50;;;;;;5005361;28;84371;-40
2023/03/07 05:28:49;;;;;;;;;;;7.20;77.40;;;;;;5008474;28;83053;-39
2023/03/07 05:31:15;;;;;;;;;;;7.20;77.40;;;;;;5009058;28;84568;-40
2023/03/07 05:33:41;;;;;;;;;;;7.20;77.40;;;;;;5012970;28;82780;-40
2023/03/07 05:36:07;;;;;;;;;;;7.20;77.40;;;;;;5008819;28;82561;-39
2023/03/07 05:38:32;;;;;;;;;;;7.20;77.40;;;;;;5008751;28;84888;-39
2023/03/07 05:40:58;;;;;;;;;;;7.20;77.40;;;;;;5011093;28;84816;-40
2023/03/07 05:43:23;;;;;;;;;;;7.20;77.50;;;;;;5008692;28;83805;-39
2023/03/07 05:45:49;;;;;;;;;;;7.10;77.40;;;;;;5017906;28;82373;-39
2023/03/07 05:48:14;;;;;;;;;;;7.20;77.50;;;;;;5008691;28;82088;-39
2023/03/07 05:50:41;;;;;;;;;;;7.10;77.40;;;;;;5008500;28;84240;-39
2023/03/07 05:53:07;;;;;;;;;;;7.20;77.50;;;;;;5008228;28;83656;-39
2023/03/07 05:55:33;;;;;;;;;;;7.10;77.40;;;;;;5008679;28;82105;-46
2023/03/07 05:57:58;;;;;;;;;;;7.20;77.40;;;;;;5008483;28;83914;-38
2023/03/07 06:00:24;;;;;;;;;;;7.20;77.50;;;;;;5012196;28;84480;-42
2023/03/07 06:02:50;;;;;;;;;;;7.20;77.40;;;;;;5017783;28;82096;-40
2023/03/07 06:05:15;;;;;;;;;;;7.10;77.40;;;;;;5010528;28;84744;-39
2023/03/07 06:07:41;;;;;;;;;;;7.20;77.50;;;;;;5008318;28;82184;-40
2023/03/07 06:10:07;;;;;;;;;;;7.20;77.50;;;;;;5022906;28;83182;-39
2023/03/07 06:12:32;;;;;;;;;;;7.10;77.50;;;;;;5020321;28;83078;-39
2023/03/07 06:14:58;;;;;;;;;;;7.20;77.50;;;;;;5021609;28;82247;-39
2023/03/07 06:17:23;;;;;;;;;;;7.20;77.40;;;;;;5011306;28;83818;-40
2023/03/07 06:19:49;;;;;;;;;;;7.20;77.50;;;;;;5007988;28;84516;-39
2023/03/07 06:22:15;;;;;;;;;;;7.20;77.50;;;;;;5020875;28;82211;-39
2023/03/07 06:24:40;;;;;;;;;;;7.10;77.40;;;;;;5019146;28;84518;-40
2023/03/07 06:27:06;;;;;;;;;;;7.20;77.50;;;;;;5019929;28;82585;-40
2023/03/07 06:29:31;;;;;;;;;;;7.20;77.50;;;;;;5019786;28;83685;-40
2023/03/07 06:31:57;;;;;;;;;;;7.20;77.60;;;;;;5007818;28;85040;-38
2023/03/07 06:34:22;;;;;;;;;;;7.20;77.50;;;;;;5008521;28;81332;-39
2023/03/07 06:36:48;;;;;;;;;;;7.20;77.60;;;;;;5007889;28;83549;-39
2023/03/07 06:39:19;;;;;;;;;;;7.20;77.60;;;;;;5007545;28;84305;-39
2023/03/07 06:41:49;;;;;;;;;;;7.20;77.60;;;;;;5007151;28;83031;-40
2023/03/07 06:44:15;;;;;;;;;;;7.10;77.40;;;;;;5009943;28;85442;-39
2023/03/07 06:46:41;;;;;;;;;;;7.20;77.60;;;;;;5007818;28;82180;-39
2023/03/07 06:49:07;;;;;;;;;;;7.10;77.50;;;;;;5007675;28;83933;-40
2023/03/07 06:51:32;;;;;;;;;;;7.20;77.50;;;;;;5007087;28;83889;-39
2023/03/07 06:53:58;;;;;;;;;;;7.20;77.50;;;;;;5007483;28;82143;-39
2023/03/07 06:56:23;;;;;;;;;;;7.20;77.50;;;;;;5007456;28;83242;-40
2023/03/07 06:58:49;;;;;;;;;;;7.10;77.50;;;;;;5007775;28;82719;-39
2023/03/07 07:01:15;;;;;;;;;;;7.20;77.50;;;;;;5007446;28;82908;-39
2023/03/07 07:03:41;;;;;;;;;;;7.20;77.50;;;;;;5003801;28;83904;-39
2023/03/07 07:06:06;;;;;;;;;;;7.10;77.50;;;;;;5023384;28;85388;-39
2023/03/07 07:08:32;;;;;;;;;;;7.10;77.50;;;;;;5026623;28;85371;-39
2023/03/07 07:10:58;;;;;;;;;;;7.20;77.60;;;;;;5023718;28;85338;-39
2023/03/07 07:13:23;;;;;;;;;;;7.20;77.60;;;;;;5023931;28;82165;-40
2023/03/07 07:15:49;;;;;;;;;;;7.20;77.50;;;;;;5024820;28;83893;-39
2023/03/07 07:18:14;;;;;;;;;;;7.20;77.50;;;;;;5023142;28;82638;-39
2023/03/07 07:20:40;;;;;;;;;;;7.20;77.50;;;;;;5011342;28;82137;-40
2023/03/07 07:23:05;;;;;;;;;;;7.20;77.50;;;;;;5016374;28;84517;-39
2023/03/07 07:25:31;;;;;;;;;;;7.20;78.10;;;;;;5024021;28;84566;-39
2023/03/07 07:27:56;;;;;;;;;;;7.20;77.50;;;;;;5022782;28;81977;-39
2023/03/07 07:30:22;;;;;;;;;;;7.20;77.50;;;;;;5006077;28;85171;-39
2023/03/07 07:32:47;;;;;;;;;;;7.20;77.50;;;;;;5007104;28;82066;-39
2023/03/07 07:35:13;;;;;;;;;;;7.20;77.50;;;;;;5006867;28;83576;-40
2023/03/07 07:37:39;;;;;;;;;;;7.20;77.50;;;;;;5017775;28;85243;-39
2023/03/07 07:40:05;;;;;;;;;;;7.20;77.50;;;;;;5023935;28;82814;-39
2023/03/07 07:42:31;;;;;;;;;;;7.20;77.50;;;;;;5006856;28;83258;-39
2023/03/07 07:44:56;;;;;;;;;;;7.20;77.50;;;;;;5008548;28;83978;-39
2023/03/07 07:47:22;;;;;;;;;;;7.20;77.50;;;;;;5007202;28;81560;-39
2023/03/07 07:49:48;;;;;;;;;;;7.20;77.50;;;;;;5008202;28;82039;-39
2023/03/07 07:52:13;;;;;;;;;;;7.30;77.50;;;;;;5006656;28;82092;-39
2023/03/07 07:54:39;;;;;;;;;;;7.20;77.50;;;;;;5006346;28;83117;-39
2023/03/07 07:57:04;;;;;;;;;;;7.30;77.50;;;;;;5006385;28;84055;-40
2023/03/07 07:59:32;;;;;;;;;;;7.20;77.50;;;;;;5013344;28;82099;-39
2023/03/07 08:01:58;;;;;;;;;;;7.30;77.40;;;;;;5020991;28;83999;-39
2023/03/07 08:04:24;;;;;;;;;;;7.30;77.40;;;;;;5023261;28;85947;-39
2023/03/07 08:06:51;;;;;;;;;;;7.30;77.40;;;;;;5017626;28;82081;-40
2023/03/07 08:09:17;;;;;;;;;;;7.30;77.40;;;;;;5021728;28;83880;-39
2023/03/07 08:11:42;;;;;;;;;;;7.30;77.40;;;;;;5026298;28;83740;-39
2023/03/07 08:14:08;;;;;;;;;;;7.30;77.40;;;;;;5006345;28;83372;-40
2023/03/07 08:16:34;;;;;;;;;;;7.30;77.30;;;;;;5023338;28;85372;-39
2023/03/07 08:19:00;;;;;;;;;;;7.40;77.30;;;;;;5020910;28;83625;-39
2023/03/07 08:21:25;;;;;;;;;;;7.30;77.10;;;;;;5023095;28;84153;-39
2023/03/07 08:23:54;;;;;;;;;;;7.40;77.30;;;;;;5022176;28;82388;-40
2023/03/07 08:26:20;;;;;;;;;;;7.30;77.20;;;;;;5010422;28;82089;-39
2023/03/07 08:28:46;;;;;;;;;;;7.40;77.30;;;;;;5015225;28;83141;-39
2023/03/07 08:31:16;;;;;;;;;;;7.40;77.20;;;;;;5008457;28;83684;-41
2023/03/07 08:33:42;;;;;;;;;;;7.40;77.20;;;;;;5016054;28;82713;-39
2023/03/07 08:36:07;;;;;;;;;;;7.40;77.20;;;;;;5020190;28;83581;-39
2023/03/07 08:38:33;;;;;;;;;;;7.40;77.10;;;;;;5023113;28;82124;-39
2023/03/07 08:41:00;;;;;;;;;;;7.40;77.10;;;;;;5005869;28;84566;-39
2023/03/07 08:43:26;;;;;;;;;;;7.40;77.70;;;;;;5004763;28;84638;-39
2023/03/07 08:45:52;;;;;;;;;;;7.40;77.10;;;;;;5005839;28;82154;-39
2023/03/07 08:48:19;;;;;;;;;;;7.40;77.10;;;;;;5020469;28;83926;-39
2023/03/07 08:50:45;;;;;;;;;;;7.40;77.00;;;;;;5023889;28;83176;-39
2023/03/07 08:53:12;;;;;;;;;;;7.50;77.10;;;;;;5025021;28;82072;-39
2023/03/07 08:55:38;;;;;;;;;;;7.40;77.00;;;;;;5018382;28;84353;-39
2023/03/07 08:58:03;;;;;;;;;;;7.50;77.00;;;;;;5007594;28;82951;-39
2023/03/07 09:00:28;;;;;;;;;;;7.50;77.00;;;;;;5019620;28;82575;-39
2023/03/07 09:02:57;;;;;;;;;;;7.50;76.90;;;;;;5022868;28;84388;-39
2023/03/07 09:05:22;;;;;;;;;;;7.50;76.90;;;;;;5019960;28;82000;-39
2023/03/07 09:07:48;;;;;;;;;;;7.60;76.90;;;;;;5013925;28;84633;-39
2023/03/07 09:10:16;;;;;;;;;;;7.60;76.90;;;;;;5020349;28;83650;-39
2023/03/07 09:12:41;;;;;;;;;;;7.50;76.90;;;;;;5009051;28;82164;-39
2023/03/07 09:15:07;;;;;;;;;;;7.50;77.00;;;;;;5012117;28;84426;-39
2023/03/07 09:17:34;;;;;;;;;;;7.50;77.00;;;;;;5009557;28;82582;-39
2023/03/07 09:19:59;;;;;;;;;;;7.50;77.00;;;;;;5008681;28;84062;-39
2023/03/07 09:22:26;;;;;;;;;;;7.50;77.10;;;;;;5005356;28;89808;-39
2023/03/07 09:24:51;;;;;;;;;;;7.50;77.10;;;;;;5005859;28;86362;-39
2023/03/07 09:27:17;;;;;;;;;;;7.50;77.10;;;;;;5005501;28;87889;-40
2023/03/07 09:29:43;;;;;;;;;;;7.60;77.10;;;;;;5022790;28;89254;-39
2023/03/07 09:32:08;;;;;;;;;;;7.60;77.00;;;;;;5019936;28;88706;-39
2023/03/07 09:34:34;;;;;;;;;;;7.50;77.00;;;;;;5021454;28;89493;-39
2023/03/07 09:36:59;;;;;;;;;;;7.60;77.10;;;;;;5020724;28;88042;-39
2023/03/07 09:39:25;;;;;;;;;;;7.60;76.90;;;;;;5005575;28;88968;-39
2023/03/07 09:41:54;;;;;;;;;;;7.60;77.00;;;;;;5004754;28;89604;-39
2023/03/07 09:44:41;;;;;;;;;;;7.60;77.00;;;;;;5005541;28;87096;-39
2023/03/07 09:47:26;;;;;;;;;;;7.60;77.20;;;;;;5005756;28;88742;-39
2023/03/07 09:49:53;;;;;;;;;;;7.70;77.30;;;;;;4998506;28;88629;-39
2023/03/07 09:52:23;;;;;;;;;;;7.60;77.20;;;;;;5010027;28;87241;-39
2023/03/07 09:55:09;;;;;;;;;;;7.70;77.40;;;;;;5010798;28;88670;-40
2023/03/07 09:57:49;;;;;;;;;;;7.70;77.30;;;;;;5011561;28;89460;-39
2023/03/07 10:00:21;;;;;;;;;;;7.70;77.40;;;;;;5016901;28;87072;-39
2023/03/07 10:03:05;;;;;;;;;;;7.60;77.30;;;;;;5020105;28;87999;-43
2023/03/07 10:05:37;;;;;;;;;;;7.70;77.40;;;;;;5020455;28;87036;-39
2023/03/07 10:08:04;;;;;;;;;;;7.60;77.30;;;;;;5005366;28;87895;-46
2023/03/07 10:10:32;;;;;;;;;;;7.70;77.50;;;;;;5013025;28;89598;-40
2023/03/07 10:13:01;;;;;;;;;;;7.70;77.50;;;;;;5010094;28;87235;-39
2023/03/07 10:15:32;;;;;;;;;;;7.70;77.30;;;;;;5015291;28;88858;-40
2023/03/07 10:17:57;;;;;;;;;;;7.70;77.30;;;;;;5016830;28;88409;-39
2023/03/07 10:20:29;;;;;;;;;;;7.70;77.30;;;;;;5021218;28;87314;-39
2023/03/07 10:23:03;;;;;;;;;;;7.70;77.30;;;;;;5018370;28;89001;-39
2023/03/07 10:25:32;;;;;;;;;;;7.80;77.30;;;;;;5012666;28;87207;-39
2023/03/07 10:28:07;;;;;;;;;;;7.80;77.40;;;;;;5018795;28;89330;-39
2023/03/07 10:30:33;;;;;;;;;;;7.80;77.40;;;;;;5018736;28;89231;-39
2023/03/07 10:32:59;;;;;;;;;;;7.80;77.50;;;;;;5014586;28;87092;-39
2023/03/07 10:35:37;;;;;;;;;;;7.80;77.50;;;;;;5004954;28;87312;-39
2023/03/07 10:38:08;;;;;;;;;;;7.80;77.60;;;;;;5006323;28;88549;-39
2023/03/07 10:40:38;;;;;;;;;;;7.80;77.60;;;;;;5014313;28;86756;-39
2023/03/07 10:43:04;;;;;;;;;;;7.90;77.70;;;;;;5019034;28;87935;-39
2023/03/07 10:45:31;;;;;;;;;;;7.80;77.60;;;;;;5007979;28;87820;-39
2023/03/07 10:48:04;;;;;;;;;;;7.90;77.60;;;;;;5016716;28;89040;-39
2023/03/07 10:50:29;;;;;;;;;;;7.90;77.60;;;;;;5013680;28;89584;-39
2023/03/07 10:52:56;;;;;;;;;;;7.90;77.70;;;;;;5004622;28;87138;-39
2023/03/07 10:55:31;;;;;;;;;;;7.90;77.70;;;;;;5005611;28;87112;-39
2023/03/07 10:58:14;;;;;;;;;;;7.90;77.70;;;;;;5009434;28;89488;-39
2023/03/07 11:00:39;;;;;;;;;;;7.90;77.70;;;;;;5004503;28;87925;-39
2023/03/07 11:03:18;;;;;;;;;;;7.90;77.70;;;;;;5011759;28;87957;-39
2023/03/07 11:05:47;;;;;;;;;;;8.00;77.80;;;;;;5012545;28;88643;-39
2023/03/07 11:08:20;;;;;;;;;;;7.90;77.70;;;;;;5010471;28;88004;-39
2023/03/07 11:10:45;;;;;;;;;;;8.00;77.90;;;;;;5003305;28;89285;-40
2023/03/07 11:13:15;;;;;;;;;;;8.00;77.90;;;;;;5004183;28;88179;-40
2023/03/07 11:15:41;;;;;;;;;;;8.00;77.90;;;;;;5013123;28;88329;-39
2023/03/07 11:18:23;;;;;;;;;;;8.00;77.90;;;;;;5016846;28;89564;-39
2023/03/07 11:20:49;;;;;;;;;;;8.00;77.90;;;;;;5013399;28;87147;-39
2023/03/07 11:23:18;;;;;;;;;;;8.00;78.00;;;;;;5004145;28;88032;-39
2023/03/07 11:25:43;;;;;;;;;;;8.00;78.00;;;;;;5004314;28;88288;-39
2023/03/07 11:28:21;;;;;;;;;;;8.00;78.00;;;;;;5006352;28;87322;-39
2023/03/07 11:30:51;;;;;;;;;;;8.00;78.00;;;;;;5009871;28;87920;-40
2023/03/07 11:33:21;;;;;;;;;;;8.00;77.90;;;;;;5004254;28;87068;-39
2023/03/07 11:35:50;;;;;;;;;;;8.10;78.00;;;;;;5011452;28;88888;-39
2023/03/07 11:38:23;;;;;;;;;;;8.10;78.00;;;;;;5018158;28;90229;-39
2023/03/07 11:40:53;;;;;;;;;;;8.10;78.00;;;;;;5011286;28;88002;-39
2023/03/07 11:43:20;;;;;;;;;;;8.20;78.00;;;;;;5010628;28;89218;-39
2023/03/07 11:45:49;;;;;;;;;;;8.10;77.90;;;;;;5015673;28;89456;-39
2023/03/07 11:48:33;;;;;;;;;;;8.10;78.00;;;;;;5018724;28;87128;-39
2023/03/07 11:50:58;;;;;;;;;;;8.20;78.10;;;;;;5006450;28;87836;-39
2023/03/07 11:53:31;;;;;;;;;;;8.20;78.10;;;;;;5003663;28;87292;-39
2023/03/07 11:55:59;;;;;;;;;;;8.20;78.10;;;;;;5011297;28;89153;-38
2023/03/07 11:58:25;;;;;;;;;;;8.20;78.00;;;;;;5018405;28;89502;-40
2023/03/07 12:00:56;;;;;;;;;;;8.20;78.20;;;;;;5005269;28;87121;-40
2023/03/07 12:03:40;;;;;;;;;;;8.20;78.20;;;;;;5002795;28;88720;-39
2023/03/07 12:06:08;;;;;;;;;;;8.20;78.30;;;;;;5003237;28;89533;-39
2023/03/07 12:08:34;;;;;;;;;;;8.20;78.10;;;;;;5003333;28;87157;-39
2023/03/07 12:11:05;;;;;;;;;;;8.30;77.90;;;;;;5003070;28;87190;-39
2023/03/07 12:13:40;;;;;;;;;;;8.30;78.20;;;;;;5014362;28;89694;-39
2023/03/07 12:16:11;;;;;;;;;;;8.30;77.60;;;;;;5005588;28;88650;-40
2023/03/07 12:18:49;;;;;;;;;;;8.30;78.10;;;;;;5003082;28;90083;-39
2023/03/07 12:21:21;;;;;;;;;;;8.30;77.80;;;;;;5007534;28;86328;-40
2023/03/07 12:23:55;;;;;;;;;;;8.40;77.20;;;;;;5006860;28;88451;-39
2023/03/07 12:26:32;;;;;;;;;;;8.40;77.70;;;;;;5002530;28;90303;-39
2023/03/07 12:29:01;;;;;;;;;;;8.40;77.80;;;;;;5004501;28;88040;-39
2023/03/07 12:31:33;;;;;;;;;;;8.40;77.50;;;;;;5004518;28;89886;-39
2023/03/07 12:34:01;;;;;;;;;;;8.40;78.00;;;;;;5010845;28;88059;-40
2023/03/07 12:36:33;;;;;;;;;;;8.50;77.80;;;;;;5015974;28;87169;-39
2023/03/07 12:38:58;;;;;;;;;;;8.50;77.80;;;;;;5009347;28;88006;-40
2023/03/07 12:41:42;;;;;;;;;;;8.50;77.60;;;;;;5012324;28;87183;-40
2023/03/07 12:44:28;;;;;;;;;;;8.50;77.80;;;;;;5013975;28;89254;-39
2023/03/07 12:47:16;;;;;;;;;;;8.50;77.60;;;;;;5007902;28;88856;-40
2023/03/07 12:49:48;;;;;;;;;;;8.50;77.60;;;;;;4993587;28;87149;-40
2023/03/07 12:52:33;;;;;;;;;;;8.50;77.80;;;;;;5012597;28;88521;-40
2023/03/07 12:55:18;;;;;;;;;;;8.60;77.90;;;;;;5000492;28;90426;-39
2023/03/07 12:57:49;;;;;;;;;;;8.60;77.90;;;;;;5014122;28;87209;-39
2023/03/07 13:00:18;;;;;;;;;;;8.60;77.50;;;;;;5006647;28;90396;-39
2023/03/07 13:02:51;;;;;;;;;;;8.60;77.80;;;;;;5002618;28;87091;-39
2023/03/07 13:05:18;;;;;;;;;;;8.60;77.70;;;;;;5003271;28;89625;-38
2023/03/07 13:07:45;;;;;;;;;;;8.70;77.70;;;;;;5009986;28;89455;-40
2023/03/07 13:10:13;;;;;;;;;;;8.70;77.80;;;;;;5013644;28;87261;-39
2023/03/07 13:12:39;;;;;;;;;;;8.70;77.70;;;;;;5003994;28;88785;-39
2023/03/07 13:15:16;;;;;;;;;;;8.70;77.70;;;;;;5002037;28;89767;-39
2023/03/07 13:17:42;;;;;;;;;;;8.80;77.70;;;;;;5002555;28;87807;-39
2023/03/07 13:20:13;;;;;;;;;;;8.80;77.70;;;;;;5004013;28;88319;-39
2023/03/07 13:22:39;;;;;;;;;;;8.80;77.60;;;;;;5006547;28;87271;-38
2023/03/07 13:25:20;;;;;;;;;;;8.80;77.70;;;;;;5003170;28;88317;-40
2023/03/07 13:27:52;;;;;;;;;;;8.80;77.70;;;;;;5005670;28;88520;-39
2023/03/07 13:30:20;;;;;;;;;;;8.90;77.70;;;;;;5004713;28;87321;-39
2023/03/07 13:32:53;;;;;;;;;;;8.90;77.60;;;;;;5008911;28;88458;-39
2023/03/07 13:35:30;;;;;;;;;;;8.90;77.60;;;;;;5001964;28;89256;-40
2023/03/07 13:38:14;;;;;;;;;;;8.90;77.40;;;;;;5002700;28;87237;-39
2023/03/07 13:40:42;;;;;;;;;;;8.90;77.10;;;;;;5008946;28;88716;-39
2023/03/07 13:43:22;;;;;;;;;;;9.00;76.80;;;;;;5010115;28;89327;-39
2023/03/07 13:45:51;;;;;;;;;;;8.90;77.40;;;;;;5001723;28;88052;-39
2023/03/07 13:48:29;;;;;;;;;;;9.00;77.60;;;;;;5003478;28;89354;-40
2023/03/07 13:50:57;;;;;;;;;;;9.00;77.70;;;;;;5013175;28;87696;-39
2023/03/07 13:53:31;;;;;;;;;;;9.00;77.60;;;;;;5014324;28;89086;-40
2023/03/07 13:56:15;;;;;;;;;;;9.00;77.70;;;;;;5017041;28;89743;-42
2023/03/07 13:58:59;;;;;;;;;;;9.00;77.70;;;;;;5013388;28;87295;-39
2023/03/07 14:01:44;;;;;;;;;;;9.00;77.70;;;;;;5009171;28;88740;-40
2023/03/07 14:04:14;;;;;;;;;;;9.00;77.70;;;;;;5012674;28;87275;-39
2023/03/07 14:06:41;;;;;;;;;;;9.00;77.50;;;;;;5009494;28;87849;-39
2023/03/07 14:09:12;;;;;;;;;;;9.10;77.70;;;;;;5016627;28;89115;-39
2023/03/07 14:11:41;;;;;;;;;;;9.10;77.70;;;;;;5004037;28;88915;-40
2023/03/07 14:14:10;;;;;;;;;;;9.10;77.70;;;;;;5006938;28;90489;-39
2023/03/07 14:16:38;;;;;;;;;;;9.10;77.80;;;;;;5006667;28;89403;-39
2023/03/07 14:19:10;;;;;;;;;;;9.10;77.30;;;;;;5005440;28;87166;-40
2023/03/07 14:21:48;;;;;;;;;;;9.20;77.40;;;;;;5012388;28;89116;-40
2023/03/07 14:24:40;;;;;;;;;;;9.20;77.60;;;;;;5005857;28;89274;-41
2023/03/07 14:27:11;;;;;;;;;;;9.20;77.40;;;;;;5008533;28;87527;-39
2023/03/07 14:29:36;;;;;;;;;;;9.20;77.60;;;;;;5012692;28;89385;-39
2023/03/07 14:32:02;;;;;;;;;;;9.20;77.20;;;;;;5014437;28;87552;-39
2023/03/07 14:34:32;;;;;;;;;;;9.20;77.70;;;;;;5013809;28;88842;-40
2023/03/07 14:37:03;;;;;;;;;;;9.20;77.60;;;;;;5010829;28;89838;-40